Fort Benton (79S)
Fort Benton, MT
Field Elevation: 2869
Lat: 47°50.42N  Long: 110°38.11W
CTAF/Unicom Freq: 122.8000
   
     For Weather-by-Phone, call 406-622-5976
Weather Advisories
4/24/2014 13:30 Z
Altimeter 29.82" Hg
Wind 230° @ 0 KT
Gusts --
Visibility NA
Temperature 4° C (39° F)
Dewpoint -1° C (30° F)
Relative Humidity 73%
Density Altitude --
Condensation Altitude 5,400 feet
  Wind and Runways
Indicated Runway = 23
History
 
 
More Info
All DigiWx sites map
NOAA Forecast
 
Airport IQ 5010
(6S5) Ravalli County
(S71) Edgar Obie
 
about DigiWx
 
FAA Disclaimer: The data displayed is for advisory purposes only and is not to be used for flight planning or operations. For official data, please call 406-622-5976 to hear the current automated AWOS voice message.
  METAR 79S 241330Z AUTO 23000KT 04/M01 A2982